createdAt,value
2018-12-09T00:00:44.013Z,988.36
2018-12-09T00:01:44.030Z,988.41
2018-12-09T00:02:44.043Z,988.41
2018-12-09T00:03:44.060Z,988.56
2018-12-09T00:04:44.073Z,988.48
2018-12-09T00:05:44.095Z,988.54
2018-12-09T00:06:44.100Z,988.52
2018-12-09T00:07:44.148Z,988.53
2018-12-09T00:08:44.149Z,988.66
2018-12-09T00:09:44.149Z,988.66
2018-12-09T00:10:44.156Z,988.59
2018-12-09T00:11:44.171Z,988.59
2018-12-09T00:12:44.186Z,988.69
2018-12-09T00:13:44.247Z,988.61
2018-12-09T00:14:44.217Z,988.70
2018-12-09T00:15:44.290Z,988.66
2018-12-09T00:16:44.292Z,988.69
2018-12-09T00:17:44.257Z,988.62
2018-12-09T00:18:44.274Z,988.64
2018-12-09T00:19:44.296Z,988.67
2018-12-09T00:20:44.300Z,988.69
2018-12-09T00:21:44.358Z,988.65
2018-12-09T00:22:44.328Z,988.62
2018-12-09T00:23:44.342Z,988.62
2018-12-09T00:24:44.360Z,988.62
2018-12-09T00:25:44.372Z,988.65
2018-12-09T00:26:44.441Z,988.61
2018-12-09T00:27:44.403Z,988.53
2018-12-09T00:28:44.429Z,988.57
2018-12-09T00:29:44.430Z,988.52
2018-12-09T00:30:44.442Z,988.50
2018-12-09T00:31:44.463Z,988.43
2018-12-09T00:32:44.479Z,988.47
2018-12-09T00:33:44.486Z,988.61
2018-12-09T00:34:44.502Z,988.60
2018-12-09T00:35:44.518Z,988.55
2018-12-09T00:36:44.566Z,988.56
2018-12-09T00:37:44.547Z,988.53
2018-12-09T00:38:44.563Z,988.45
2018-12-09T00:39:44.613Z,988.51
2018-12-09T00:40:44.598Z,988.50
2018-12-09T00:41:44.602Z,988.65
2018-12-09T00:42:44.643Z,988.56
2018-12-09T00:43:44.628Z,988.69
2018-12-09T00:44:44.668Z,988.72
2018-12-09T00:45:44.675Z,988.66
2018-12-09T00:46:44.676Z,988.55
2018-12-09T00:47:44.692Z,988.57
2018-12-09T00:48:44.707Z,988.61
2018-12-09T00:49:44.720Z,988.66
2018-12-09T00:50:44.729Z,988.67
2018-12-09T00:51:44.783Z,988.64
2018-12-09T00:52:44.759Z,988.72
2018-12-09T00:53:44.775Z,988.64
2018-12-09T00:54:44.789Z,988.70
2018-12-09T00:55:44.799Z,988.58
2018-12-09T00:56:44.822Z,988.70
2018-12-09T00:57:44.891Z,988.79
2018-12-09T00:58:44.845Z,988.62
2018-12-09T00:59:44.863Z,988.66
2018-12-09T01:00:44.879Z,988.67
2018-12-09T01:01:44.890Z,988.65
2018-12-09T01:02:44.947Z,988.63
2018-12-09T01:03:44.936Z,988.70
2018-12-09T01:04:44.938Z,988.61
2018-12-09T01:05:44.946Z,988.63
2018-12-09T01:06:44.957Z,988.63
2018-12-09T01:07:45.009Z,988.65
2018-12-09T01:08:44.995Z,988.61
2018-12-09T01:09:45.002Z,988.71
2018-12-09T01:10:45.024Z,988.89
2018-12-09T01:11:45.029Z,988.77
2018-12-09T01:12:45.043Z,988.88
2018-12-09T01:13:45.059Z,988.79
2018-12-09T01:14:45.074Z,988.85
2018-12-09T01:15:45.089Z,988.87
2018-12-09T01:16:45.104Z,988.93
2018-12-09T01:17:45.122Z,988.88
2018-12-09T01:18:45.132Z,988.93
2018-12-09T01:19:45.204Z,988.90
2018-12-09T01:20:45.161Z,988.89
2018-12-09T01:21:45.175Z,988.90
2018-12-09T01:22:45.189Z,988.97
2018-12-09T01:23:45.202Z,988.93
2018-12-09T01:24:45.221Z,988.99
2018-12-09T01:25:45.240Z,989.08
2018-12-09T01:26:45.245Z,989.05
2018-12-09T01:27:45.269Z,989.00
2018-12-09T01:28:45.271Z,988.94
2018-12-09T01:29:45.291Z,989.01
2018-12-09T01:30:45.369Z,988.99
2018-12-09T01:31:45.329Z,989.10
2018-12-09T01:32:45.333Z,989.02
2018-12-09T01:33:45.344Z,989.08
2018-12-09T01:34:45.362Z,989.03
2018-12-09T01:35:45.370Z,989.15
2018-12-09T01:36:45.389Z,989.19
2018-12-09T01:37:45.467Z,989.15
2018-12-09T01:38:45.444Z,989.12
2018-12-09T01:39:45.434Z,989.16
2018-12-09T01:40:45.533Z,989.20
2018-12-09T01:41:45.461Z,989.09
2018-12-09T01:42:45.474Z,989.06
2018-12-09T01:43:45.488Z,989.13
2018-12-09T01:44:45.510Z,989.19
2018-12-09T01:45:45.527Z,989.24
2018-12-09T01:46:45.530Z,989.27
2018-12-09T01:47:45.548Z,989.38
2018-12-09T01:48:45.562Z,989.29
2018-12-09T01:49:45.587Z,989.24
2018-12-09T01:50:45.644Z,989.37
2018-12-09T01:51:45.603Z,989.36
2018-12-09T01:52:45.631Z,989.35
2018-12-09T01:53:45.631Z,989.33
2018-12-09T01:54:45.651Z,989.36
2018-12-09T01:55:45.658Z,989.37
2018-12-09T01:56:45.698Z,989.38
2018-12-09T01:57:45.684Z,989.35
2018-12-09T01:58:45.701Z,989.24
2018-12-09T01:59:45.716Z,989.49
2018-12-09T02:00:45.780Z,989.52
2018-12-09T02:01:45.746Z,989.54
2018-12-09T02:02:45.759Z,989.58
2018-12-09T02:03:45.812Z,989.46
2018-12-09T02:04:45.785Z,989.40
2018-12-09T02:05:45.802Z,989.36
2018-12-09T02:06:45.838Z,989.44
2018-12-09T02:07:45.825Z,989.43
2018-12-09T02:08:45.841Z,989.56
2018-12-09T02:09:45.852Z,989.49
2018-12-09T02:10:45.867Z,989.57
2018-12-09T02:11:45.889Z,989.61
2018-12-09T02:12:45.915Z,989.56
2018-12-09T02:13:45.907Z,989.61
2018-12-09T02:14:45.924Z,989.61
2018-12-09T02:15:45.973Z,989.68
2018-12-09T02:16:45.968Z,989.77
2018-12-09T02:17:45.964Z,989.42
2018-12-09T02:18:45.982Z,989.42
2018-12-09T02:19:45.994Z,989.53
2018-12-09T02:20:46.004Z,989.53
2018-12-09T02:21:46.017Z,989.45
2018-12-09T02:22:46.052Z,989.43
2018-12-09T02:23:46.069Z,989.51
2018-12-09T02:24:46.062Z,989.55
2018-12-09T02:25:46.080Z,989.62
2018-12-09T02:26:46.100Z,989.61
2018-12-09T02:27:46.104Z,989.59
2018-12-09T02:28:46.159Z,989.80
2018-12-09T02:29:46.134Z,989.75
2018-12-09T02:30:46.144Z,989.70
2018-12-09T02:31:46.168Z,989.65
2018-12-09T02:32:46.172Z,989.79
2018-12-09T02:33:46.195Z,989.88
2018-12-09T02:34:46.204Z,989.88
2018-12-09T02:35:46.218Z,989.83
2018-12-09T02:36:46.228Z,989.71
2018-12-09T02:37:46.245Z,989.74
2018-12-09T02:38:46.254Z,989.71
2018-12-09T02:39:46.285Z,989.69
2018-12-09T02:40:46.285Z,989.69
2018-12-09T02:41:46.311Z,989.71
2018-12-09T02:42:46.317Z,989.73
2018-12-09T02:43:46.333Z,989.70
2018-12-09T02:44:46.339Z,989.65
2018-12-09T02:45:46.360Z,989.55
2018-12-09T02:46:46.376Z,989.63
2018-12-09T02:47:46.378Z,989.58
2018-12-09T02:48:46.391Z,989.64
2018-12-09T02:49:46.427Z,989.61
2018-12-09T02:50:46.428Z,989.65
2018-12-09T02:51:46.431Z,989.64
2018-12-09T02:52:46.449Z,989.65
2018-12-09T02:53:46.463Z,989.68
2018-12-09T02:54:46.493Z,989.65
2018-12-09T02:55:46.490Z,989.62
2018-12-09T02:56:46.512Z,989.62
2018-12-09T02:57:46.553Z,989.58
2018-12-09T02:58:46.529Z,989.59
2018-12-09T02:59:46.540Z,989.63
2018-12-09T03:00:46.554Z,989.59
2018-12-09T03:01:46.578Z,989.60
2018-12-09T03:02:46.588Z,989.67
2018-12-09T03:03:46.598Z,989.65
2018-12-09T03:04:46.612Z,989.69
2018-12-09T03:05:46.625Z,989.70
2018-12-09T03:06:46.642Z,989.68
2018-12-09T03:07:46.682Z,989.59
2018-12-09T03:08:46.664Z,989.67
2018-12-09T03:38:06.006Z,989.67
2018-12-09T03:39:05.966Z,989.70
2018-12-09T03:40:57.925Z,989.64
2018-12-09T03:41:57.861Z,989.64
2018-12-09T03:43:50.294Z,989.63
2018-12-09T03:44:50.274Z,989.69
2018-12-09T03:46:42.204Z,989.83
2018-12-09T03:47:42.181Z,989.73
2018-12-09T03:49:34.088Z,989.79
2018-12-09T03:50:34.092Z,989.78
2018-12-09T03:52:26.010Z,989.74
2018-12-09T03:53:26.036Z,989.74
2018-12-09T03:55:17.905Z,989.88
2018-12-09T03:56:17.943Z,989.76
2018-12-09T03:58:09.855Z,989.83
2018-12-09T03:59:09.848Z,989.86
2018-12-09T04:01:01.793Z,989.91
2018-12-09T04:02:01.775Z,989.92
2018-12-09T04:03:53.678Z,989.92
2018-12-09T04:04:53.685Z,989.96
2018-12-09T04:06:45.655Z,989.99
2018-12-09T04:07:45.610Z,989.85
2018-12-09T04:09:37.618Z,989.99
2018-12-09T04:10:37.535Z,989.91
2018-12-09T04:12:29.491Z,989.95
2018-12-09T04:13:29.455Z,989.94
2018-12-09T04:15:21.350Z,990.01
2018-12-09T04:16:21.356Z,989.98
2018-12-09T04:18:13.792Z,989.94
2018-12-09T04:19:13.836Z,989.92
2018-12-09T04:21:05.704Z,990.05
2018-12-09T04:22:05.684Z,989.91
2018-12-09T04:23:57.598Z,990.01
2018-12-09T04:24:57.607Z,990.05
2018-12-09T04:26:49.624Z,990.04
2018-12-09T04:27:49.606Z,990.03
2018-12-09T04:29:41.512Z,990.16
2018-12-09T04:30:41.520Z,990.14
2018-12-09T04:32:33.446Z,990.22
2018-12-09T04:33:33.432Z,990.15
2018-12-09T04:35:25.334Z,990.18
2018-12-09T04:36:25.343Z,990.12
2018-12-09T04:38:17.270Z,990.20
2018-12-09T04:39:17.261Z,990.20
2018-12-09T04:41:09.164Z,990.12
2018-12-09T04:42:09.182Z,990.19
2018-12-09T04:44:01.135Z,990.17
2018-12-09T04:45:01.124Z,990.18
2018-12-09T04:46:53.033Z,990.22
2018-12-09T04:47:53.063Z,990.25
2018-12-09T04:49:44.958Z,990.27
2018-12-09T04:50:44.943Z,990.32
2018-12-09T04:52:36.892Z,990.15
2018-12-09T04:53:37.095Z,990.25
2018-12-09T04:55:29.322Z,990.26
2018-12-09T04:56:29.329Z,990.27
2018-12-09T04:58:21.255Z,990.24
2018-12-09T04:59:21.247Z,990.10
2018-12-09T05:01:13.150Z,990.21
2018-12-09T05:02:13.186Z,990.26
2018-12-09T05:04:05.080Z,990.21
2018-12-09T05:05:05.065Z,990.26
2018-12-09T05:06:56.971Z,990.26
2018-12-09T05:07:57.191Z,990.33
2018-12-09T05:09:48.908Z,990.42
2018-12-09T05:10:48.896Z,990.44
2018-12-09T05:12:40.861Z,990.33
2018-12-09T05:13:40.835Z,990.40
2018-12-09T05:15:32.828Z,990.37
2018-12-09T05:16:32.764Z,990.34
2018-12-09T05:18:24.726Z,990.29
2018-12-09T05:19:24.694Z,990.37
2018-12-09T05:21:16.705Z,990.39
2018-12-09T05:22:16.632Z,990.40
2018-12-09T05:24:08.560Z,990.53
2018-12-09T05:25:08.546Z,990.53
2018-12-09T05:27:00.466Z,990.52
2018-12-09T05:28:00.463Z,990.54
2018-12-09T05:29:52.394Z,990.55
2018-12-09T05:30:52.385Z,990.59
2018-12-09T05:32:44.284Z,990.61
2018-12-09T05:33:44.287Z,990.58
2018-12-09T05:35:36.222Z,990.48
2018-12-09T05:36:36.201Z,990.55
2018-12-09T05:38:28.111Z,990.80
2018-12-09T05:39:28.126Z,990.75
2018-12-09T05:41:20.050Z,990.75
2018-12-09T05:42:20.036Z,990.80
2018-12-09T05:44:11.985Z,990.80
2018-12-09T05:45:11.969Z,990.83
2018-12-09T05:47:03.855Z,990.86
2018-12-09T05:48:03.860Z,990.80
2018-12-09T05:49:55.787Z,990.83
2018-12-09T05:50:55.793Z,990.81
2018-12-09T05:52:47.704Z,990.72
2018-12-09T05:53:47.715Z,990.74
2018-12-09T05:55:39.641Z,990.59
2018-12-09T05:56:39.631Z,990.64
2018-12-09T05:58:31.711Z,990.72
2018-12-09T05:59:31.560Z,990.68
2018-12-09T06:01:23.511Z,990.58
2018-12-09T06:02:23.476Z,990.47
2018-12-09T06:04:15.378Z,990.57
2018-12-09T06:05:15.385Z,990.64
2018-12-09T06:07:07.309Z,990.72
2018-12-09T06:08:07.444Z,990.66
2018-12-09T06:09:59.224Z,990.72
2018-12-09T06:10:59.261Z,990.80
2018-12-09T06:12:51.146Z,990.93
2018-12-09T06:13:51.171Z,991.00
2018-12-09T06:15:43.085Z,991.04
2018-12-09T06:16:43.047Z,991.07
2018-12-09T06:18:34.958Z,991.07
2018-12-09T06:19:34.965Z,991.03
2018-12-09T06:21:26.892Z,991.04
2018-12-09T06:22:26.882Z,991.05
2018-12-09T06:24:18.792Z,991.07
2018-12-09T06:25:18.802Z,991.06
2018-12-09T06:27:10.794Z,991.02
2018-12-09T06:28:10.714Z,991.05
2018-12-09T06:30:02.619Z,991.09
2018-12-09T06:31:02.640Z,991.04
2018-12-09T06:32:54.555Z,991.05
2018-12-09T06:33:54.545Z,991.10
2018-12-09T06:35:46.511Z,991.13
2018-12-09T06:36:46.471Z,991.10
2018-12-09T06:38:38.439Z,991.10
2018-12-09T06:39:38.404Z,991.07
2018-12-09T06:41:30.346Z,991.16
2018-12-09T06:42:30.355Z,991.17
2018-12-09T06:44:22.272Z,991.16
2018-12-09T06:45:22.266Z,991.11
2018-12-09T06:47:14.194Z,991.13
2018-12-09T06:48:14.181Z,991.15
2018-12-09T06:50:06.203Z,991.23
2018-12-09T06:51:06.100Z,991.21
2018-12-09T06:52:58.048Z,991.18
2018-12-09T06:53:58.026Z,991.22
2018-12-09T06:55:49.956Z,991.22
2018-12-09T06:56:49.930Z,991.28
2018-12-09T06:58:41.890Z,991.31
2018-12-09T06:59:41.864Z,991.34
2018-12-09T07:01:33.845Z,991.31
2018-12-09T07:02:33.776Z,991.35
2018-12-09T07:04:25.691Z,991.32
2018-12-09T07:05:25.692Z,991.34
2018-12-09T07:07:17.639Z,991.36
2018-12-09T07:08:17.629Z,991.50
2018-12-09T07:10:09.533Z,991.42
2018-12-09T07:11:09.543Z,991.39
2018-12-09T07:13:01.486Z,991.47
2018-12-09T07:14:01.457Z,991.50
2018-12-09T07:15:53.371Z,991.54
2018-12-09T07:16:53.376Z,991.41
2018-12-09T07:18:45.307Z,991.52
2018-12-09T07:19:45.321Z,991.58
2018-12-09T07:21:37.211Z,991.53
2018-12-09T07:22:37.215Z,991.63
2018-12-09T07:24:29.140Z,991.61
2018-12-09T07:25:29.124Z,991.70
2018-12-09T07:27:21.036Z,991.67
2018-12-09T07:28:21.044Z,991.67
2018-12-09T07:30:12.994Z,991.78
2018-12-09T07:31:12.984Z,991.80
2018-12-09T07:33:04.902Z,991.67
2018-12-09T07:34:04.889Z,991.70
2018-12-09T07:35:56.799Z,991.76
2018-12-09T07:36:56.810Z,991.74
2018-12-09T07:38:48.779Z,991.77
2018-12-09T07:39:48.730Z,991.80
2018-12-09T07:41:40.668Z,991.86
2018-12-09T07:42:40.640Z,991.86
2018-12-09T07:44:32.590Z,991.82
2018-12-09T07:45:32.558Z,991.76
2018-12-09T07:47:24.464Z,991.90
2018-12-09T07:48:24.474Z,991.85
2018-12-09T07:50:16.455Z,991.90
2018-12-09T07:51:16.435Z,991.96
2018-12-09T07:53:08.349Z,991.93
2018-12-09T07:54:08.351Z,992.01
2018-12-09T07:56:00.278Z,992.04
2018-12-09T07:57:00.264Z,992.01
2018-12-09T07:58:52.190Z,992.09
2018-12-09T07:59:52.230Z,992.13
2018-12-09T08:01:44.113Z,992.09
2018-12-09T08:02:44.098Z,992.10
2018-12-09T08:04:36.088Z,992.23
2018-12-09T08:05:36.062Z,992.21
2018-12-09T08:07:28.019Z,992.25
2018-12-09T08:08:27.995Z,992.29
2018-12-09T08:10:19.909Z,992.24
2018-12-09T08:11:19.899Z,992.24
2018-12-09T08:13:11.827Z,992.24
2018-12-09T08:14:11.814Z,992.29
2018-12-09T08:16:03.743Z,992.25
2018-12-09T08:17:03.730Z,992.33
2018-12-09T08:18:55.638Z,992.41
2018-12-09T08:19:55.644Z,992.38
2018-12-09T08:21:47.572Z,992.47
2018-12-09T08:22:47.588Z,992.48
2018-12-09T08:24:39.508Z,992.53
2018-12-09T08:25:39.510Z,992.49
2018-12-09T08:27:31.499Z,992.62
2018-12-09T08:28:31.426Z,992.64
2018-12-09T08:30:23.336Z,992.66
2018-12-09T08:31:23.323Z,992.61
2018-12-09T08:33:15.244Z,992.69
2018-12-09T08:34:15.263Z,992.71
2018-12-09T08:36:07.678Z,992.71
2018-12-09T08:37:07.684Z,992.67
2018-12-09T08:38:59.601Z,992.69
2018-12-09T08:39:59.574Z,992.67
2018-12-09T08:41:51.554Z,992.69
2018-12-09T08:42:51.488Z,992.72
2018-12-09T08:44:43.414Z,992.80
2018-12-09T08:45:43.435Z,992.76
2018-12-09T08:47:35.462Z,992.68
2018-12-09T08:48:35.466Z,992.71
2018-12-09T08:50:27.458Z,992.77
2018-12-09T08:51:27.403Z,992.83
2018-12-09T08:53:19.313Z,992.85
2018-12-09T08:54:19.315Z,992.82
2018-12-09T08:56:11.244Z,992.83
2018-12-09T08:57:11.237Z,992.83
2018-12-09T08:59:03.148Z,992.78
2018-12-09T09:00:03.155Z,992.77
2018-12-09T09:01:55.599Z,992.75
2018-12-09T09:02:55.559Z,992.85
2018-12-09T09:04:47.565Z,992.91
2018-12-09T09:05:47.529Z,992.97
2018-12-09T09:07:39.453Z,993.00
2018-12-09T09:08:39.438Z,992.92
2018-12-09T09:10:31.859Z,992.96
2018-12-09T09:11:31.847Z,992.96
2018-12-09T09:13:23.767Z,992.94
2018-12-09T09:14:23.892Z,992.90
2018-12-09T09:15:23.779Z,993.00
2018-12-09T09:16:23.798Z,992.95
2018-12-09T09:17:23.839Z,992.97
2018-12-09T09:18:23.822Z,992.98
2018-12-09T09:19:23.855Z,993.00
2018-12-09T09:20:23.853Z,992.99
2018-12-09T09:21:23.869Z,992.94
2018-12-09T09:22:23.934Z,992.93
2018-12-09T09:23:23.898Z,992.98
2018-12-09T09:24:23.913Z,992.95
2018-12-09T09:25:23.933Z,993.00
2018-12-09T09:26:23.946Z,993.03
2018-12-09T09:27:23.960Z,993.02
2018-12-09T09:28:23.967Z,993.20
2018-12-09T09:29:23.977Z,993.16
2018-12-09T09:30:24.031Z,993.12
2018-12-09T09:31:24.007Z,993.10
2018-12-09T09:32:24.022Z,993.08
2018-12-09T09:33:24.044Z,993.21
2018-12-09T09:34:24.093Z,993.17
2018-12-09T09:35:24.064Z,993.14
2018-12-09T09:36:24.086Z,993.09
2018-12-09T09:37:24.093Z,993.20
2018-12-09T09:38:24.105Z,993.20
2018-12-09T09:39:24.118Z,993.20
2018-12-09T09:40:24.133Z,993.09
2018-12-09T09:41:24.147Z,993.18
2018-12-09T09:42:24.163Z,993.20
2018-12-09T09:43:24.181Z,993.14
2018-12-09T09:44:24.212Z,993.18
2018-12-09T09:45:24.204Z,993.26
2018-12-09T09:46:24.216Z,993.25
2018-12-09T09:47:24.249Z,993.26
2018-12-09T09:48:24.247Z,993.32
2018-12-09T09:49:24.257Z,993.29
2018-12-09T09:50:24.278Z,993.33
2018-12-09T09:51:24.290Z,993.32
2018-12-09T09:52:24.356Z,993.21
2018-12-09T09:53:24.314Z,993.31
2018-12-09T09:54:24.369Z,993.39
2018-12-09T09:55:24.342Z,993.39
2018-12-09T09:56:24.356Z,993.37
2018-12-09T09:57:24.375Z,993.39
2018-12-09T09:58:24.388Z,993.48
2018-12-09T09:59:24.401Z,993.36
2018-12-09T10:00:24.414Z,993.46
2018-12-09T10:01:24.431Z,993.40
2018-12-09T10:02:24.457Z,993.35
2018-12-09T10:03:26.033Z,993.47
2018-12-09T10:04:24.482Z,993.43
2018-12-09T10:05:24.498Z,993.44
2018-12-09T10:06:24.501Z,993.44
2018-12-09T10:07:24.514Z,993.47
2018-12-09T10:08:24.613Z,993.48
2018-12-09T10:09:24.542Z,993.48
2018-12-09T10:10:24.555Z,993.55
2018-12-09T10:11:24.569Z,993.46
2018-12-09T10:12:24.589Z,993.49
2018-12-09T10:13:24.626Z,993.49
2018-12-09T10:14:24.618Z,993.50
2018-12-09T10:15:24.674Z,993.49
2018-12-09T10:16:24.682Z,993.51
2018-12-09T10:17:24.658Z,993.57
2018-12-09T10:18:24.675Z,993.60
2018-12-09T10:19:24.685Z,993.60
2018-12-09T10:20:24.704Z,993.56
2018-12-09T10:21:24.742Z,993.57
2018-12-09T10:22:24.728Z,993.62
2018-12-09T10:23:24.745Z,993.60
2018-12-09T10:24:24.763Z,993.64
2018-12-09T10:25:24.773Z,993.61
2018-12-09T10:26:24.783Z,993.62
2018-12-09T10:27:24.818Z,993.61
2018-12-09T10:28:24.825Z,993.66
2018-12-09T10:29:24.835Z,993.66
2018-12-09T10:30:24.846Z,993.56
2018-12-09T10:31:24.878Z,993.62
2018-12-09T10:32:24.876Z,993.64
2018-12-09T10:33:24.884Z,993.63
2018-12-09T10:34:24.919Z,993.61
2018-12-09T10:35:24.914Z,993.61
2018-12-09T10:36:24.926Z,993.62
2018-12-09T10:37:24.939Z,993.59
2018-12-09T10:38:25.052Z,993.62
2018-12-09T10:39:24.969Z,993.65
2018-12-09T10:40:25.080Z,993.64
2018-12-09T10:41:24.999Z,993.63
2018-12-09T10:42:25.015Z,993.64
2018-12-09T10:43:25.027Z,993.69
2018-12-09T10:44:25.052Z,993.66
2018-12-09T10:45:25.053Z,993.68
2018-12-09T10:46:25.110Z,993.67
2018-12-09T10:47:25.102Z,993.67
2018-12-09T10:48:25.117Z,993.72
2018-12-09T10:49:25.119Z,993.73
2018-12-09T10:50:25.126Z,993.68
2018-12-09T10:51:25.139Z,993.64
2018-12-09T10:52:25.153Z,993.63
2018-12-09T10:53:25.167Z,993.63
2018-12-09T10:54:25.230Z,993.72
2018-12-09T10:55:25.222Z,993.70
2018-12-09T10:56:25.213Z,993.65
2018-12-09T10:57:25.225Z,993.76
2018-12-09T10:58:25.239Z,993.74
2018-12-09T10:59:25.258Z,993.65
2018-12-09T11:00:25.268Z,993.68
2018-12-09T11:01:25.284Z,993.63
2018-12-09T11:02:25.338Z,993.67
2018-12-09T11:03:25.310Z,993.70
2018-12-09T11:04:25.324Z,993.76
2018-12-09T11:05:25.344Z,993.63
2018-12-09T11:06:25.353Z,993.77
2018-12-09T11:07:25.374Z,993.76
2018-12-09T11:08:25.429Z,993.72
2018-12-09T11:09:25.400Z,993.72
2018-12-09T11:10:25.421Z,993.74
2018-12-09T11:11:25.431Z,993.83
2018-12-09T11:12:25.450Z,993.84
2018-12-09T11:13:25.479Z,993.91
2018-12-09T11:14:25.468Z,993.86
2018-12-09T11:15:25.605Z,993.92
2018-12-09T11:16:25.522Z,993.96
2018-12-09T11:17:25.511Z,994.00
2018-12-09T11:18:25.527Z,994.03
2018-12-09T11:19:25.540Z,994.04
2018-12-09T11:20:25.559Z,994.05
2018-12-09T11:21:30.540Z,994.11
2018-12-09T11:22:25.585Z,994.10
2018-12-09T11:23:25.602Z,994.07
2018-12-09T11:24:25.626Z,994.07
2018-12-09T11:25:25.628Z,994.10
2018-12-09T11:26:25.701Z,994.08
2018-12-09T11:27:25.659Z,994.17
2018-12-09T11:28:25.678Z,994.15
2018-12-09T11:29:25.690Z,994.17
2018-12-09T11:30:25.735Z,994.12
2018-12-09T11:31:25.734Z,994.21
2018-12-09T11:32:25.730Z,994.22
2018-12-09T11:33:25.745Z,994.22
2018-12-09T11:34:25.761Z,994.20
2018-12-09T11:35:25.868Z,994.25
2018-12-09T11:36:25.831Z,994.27
2018-12-09T11:37:25.805Z,994.29
2018-12-09T11:38:25.828Z,994.24
2018-12-09T11:39:25.834Z,994.23
2018-12-09T11:40:25.863Z,994.27
2018-12-09T11:41:25.864Z,994.24
2018-12-09T11:42:25.878Z,994.25
2018-12-09T11:43:25.891Z,994.23
2018-12-09T11:44:25.908Z,994.19
2018-12-09T11:45:25.924Z,994.26
2018-12-09T11:46:25.941Z,994.23
2018-12-09T11:47:25.954Z,994.35
2018-12-09T11:48:25.969Z,994.48
2018-12-09T11:49:25.986Z,994.68
2018-12-09T11:50:25.999Z,994.77
2018-12-09T11:51:26.016Z,994.90
2018-12-09T11:52:26.030Z,994.66
2018-12-09T11:53:26.047Z,994.69
2018-12-09T11:54:26.055Z,994.63
2018-12-09T11:55:26.069Z,994.62
2018-12-09T11:56:26.084Z,994.63
2018-12-09T11:57:26.101Z,994.59
2018-12-09T11:58:26.146Z,994.62
2018-12-09T11:59:26.127Z,994.62
2018-12-09T12:00:26.149Z,994.59
2018-12-09T12:01:26.163Z,994.58
2018-12-09T12:02:26.170Z,994.61
2018-12-09T12:03:26.183Z,994.71
2018-12-09T12:04:26.248Z,994.68
2018-12-09T12:05:26.221Z,994.78
2018-12-09T12:06:26.251Z,994.80
2018-12-09T12:07:26.248Z,994.85
2018-12-09T12:08:26.259Z,994.90
2018-12-09T12:09:26.267Z,994.91
2018-12-09T12:10:26.281Z,994.92
2018-12-09T12:11:26.294Z,994.90
2018-12-09T12:12:26.454Z,994.91
2018-12-09T12:13:26.323Z,994.94
2018-12-09T12:14:26.334Z,994.96
2018-12-09T12:15:26.359Z,994.84
2018-12-09T12:16:26.368Z,994.93
2018-12-09T12:17:26.377Z,994.97
2018-12-09T12:18:26.387Z,994.90
2018-12-09T12:19:26.401Z,994.95
2018-12-09T12:20:26.420Z,995.05
2018-12-09T12:21:26.432Z,995.09
2018-12-09T12:22:26.440Z,995.05
2018-12-09T12:23:26.460Z,995.09
2018-12-09T12:24:26.468Z,995.17
2018-12-09T12:25:26.476Z,995.17
2018-12-09T12:26:26.489Z,995.17
2018-12-09T12:27:26.505Z,995.18
2018-12-09T12:28:26.524Z,995.21
2018-12-09T12:29:26.532Z,995.18
2018-12-09T12:30:26.576Z,995.17
2018-12-09T12:31:26.586Z,995.15
2018-12-09T12:32:26.584Z,995.23
2018-12-09T12:33:26.662Z,995.17
2018-12-09T12:34:26.595Z,995.20
2018-12-09T12:35:26.612Z,995.25
2018-12-09T12:36:26.652Z,995.26
2018-12-09T12:37:26.636Z,995.26
2018-12-09T12:38:26.645Z,995.26
2018-12-09T12:39:26.660Z,995.31
2018-12-09T12:40:26.675Z,995.32
2018-12-09T12:41:26.684Z,995.30
2018-12-09T12:42:26.698Z,995.40
2018-12-09T12:43:26.741Z,995.44
2018-12-09T12:44:26.814Z,995.49
2018-12-09T12:45:26.743Z,995.46
2018-12-09T12:46:26.750Z,995.46
2018-12-09T12:47:26.764Z,995.47
2018-12-09T12:48:26.849Z,995.52
2018-12-09T12:49:26.805Z,995.46
2018-12-09T12:50:26.805Z,995.51
2018-12-09T12:51:26.824Z,995.54
2018-12-09T12:52:26.835Z,995.52
2018-12-09T12:53:26.844Z,995.57
2018-12-09T12:54:26.869Z,995.61
2018-12-09T12:55:26.869Z,995.61
2018-12-09T12:56:26.883Z,995.64
2018-12-09T12:57:26.898Z,995.66
2018-12-09T12:58:26.910Z,995.67
2018-12-09T12:59:26.922Z,995.68
2018-12-09T13:00:27.011Z,995.74
2018-12-09T13:01:26.950Z,995.74
2018-12-09T13:02:26.960Z,995.79
2018-12-09T13:03:26.992Z,995.83
2018-12-09T13:04:26.989Z,995.87
2018-12-09T13:05:27.016Z,995.85
2018-12-09T13:06:27.014Z,995.89
2018-12-09T13:07:27.031Z,995.97
2018-12-09T13:08:27.044Z,996.00
2018-12-09T13:09:27.056Z,996.02
2018-12-09T13:10:27.102Z,996.10
2018-12-09T13:11:27.083Z,996.09
2018-12-09T13:12:27.095Z,996.15
2018-12-09T13:13:27.107Z,996.15
2018-12-09T13:14:27.124Z,996.13
2018-12-09T13:15:27.139Z,996.21
2018-12-09T13:16:27.188Z,996.20
2018-12-09T13:17:27.160Z,996.23
2018-12-09T13:18:27.177Z,996.22
2018-12-09T13:19:27.194Z,996.23
2018-12-09T13:20:27.202Z,996.24
2018-12-09T13:21:27.237Z,996.29
2018-12-09T13:22:27.228Z,996.25
2018-12-09T13:23:27.248Z,996.29
2018-12-09T13:24:27.263Z,996.28
2018-12-09T13:25:27.268Z,996.31
2018-12-09T13:26:27.284Z,996.36
2018-12-09T13:27:27.299Z,996.37
2018-12-09T13:28:27.311Z,996.39
2018-12-09T13:29:27.378Z,996.43
2018-12-09T13:30:27.340Z,996.45
2018-12-09T13:31:27.382Z,996.47
2018-12-09T13:32:27.364Z,996.47
2018-12-09T13:33:27.382Z,996.54
2018-12-09T13:34:27.404Z,996.56
2018-12-09T13:35:27.406Z,996.62
2018-12-09T13:36:27.420Z,996.65
2018-12-09T13:37:27.447Z,996.65
2018-12-09T13:38:27.447Z,996.71
2018-12-09T13:39:27.467Z,996.71
2018-12-09T13:40:27.558Z,996.73
2018-12-09T13:41:27.488Z,996.77
2018-12-09T13:42:27.502Z,996.82
2018-12-09T13:43:27.542Z,996.80
2018-12-09T13:44:27.532Z,996.82
2018-12-09T13:45:27.544Z,996.87
2018-12-09T13:46:27.571Z,996.89
2018-12-09T13:47:27.568Z,996.86
2018-12-09T13:48:27.636Z,996.95
2018-12-09T13:49:27.594Z,996.99
2018-12-09T13:50:27.613Z,996.98
2018-12-09T13:51:27.625Z,997.01
2018-12-09T13:52:27.638Z,997.06
2018-12-09T13:53:27.651Z,997.07
2018-12-09T13:54:27.671Z,997.13
2018-12-09T13:55:27.679Z,997.10
2018-12-09T13:56:27.723Z,997.16
2018-12-09T13:57:27.712Z,997.15
2018-12-09T13:58:27.714Z,997.18
2018-12-09T13:59:27.728Z,997.23
2018-12-09T14:00:27.742Z,997.19
2018-12-09T14:01:27.759Z,997.25
2018-12-09T14:02:27.804Z,997.27
2018-12-09T14:03:27.788Z,997.29
2018-12-09T14:04:27.799Z,997.31
2018-12-09T14:05:27.812Z,997.32
2018-12-09T14:06:27.826Z,997.35
2018-12-09T14:07:27.863Z,997.33
2018-12-09T14:08:27.857Z,997.38
2018-12-09T14:09:27.879Z,997.45
2018-12-09T14:10:27.905Z,997.45
2018-12-09T14:11:29.054Z,997.47
2018-12-09T14:12:27.905Z,997.52
2018-12-09T14:13:27.917Z,997.55
2018-12-09T14:14:27.931Z,997.57
2018-12-09T14:15:27.957Z,997.59
2018-12-09T14:16:27.960Z,997.51
2018-12-09T14:17:27.971Z,997.54
2018-12-09T14:18:27.987Z,997.66
2018-12-09T14:19:28.001Z,997.66
2018-12-09T14:20:28.015Z,997.72
2018-12-09T14:21:28.107Z,997.76
2018-12-09T14:22:28.040Z,997.71
2018-12-09T14:23:28.141Z,997.79
2018-12-09T14:24:28.068Z,997.82
2018-12-09T14:25:28.085Z,997.78
2018-12-09T14:26:28.094Z,997.83
2018-12-09T14:27:28.110Z,997.87
2018-12-09T14:28:28.183Z,997.88
2018-12-09T14:29:28.138Z,997.86
2018-12-09T14:30:28.149Z,997.92
2018-12-09T14:31:28.163Z,997.96
2018-12-09T14:32:28.183Z,997.97
2018-12-09T14:33:28.191Z,997.97
2018-12-09T14:34:28.261Z,998.00
2018-12-09T14:35:28.219Z,998.02
2018-12-09T14:36:28.252Z,997.95
2018-12-09T14:37:28.245Z,998.03
2018-12-09T14:38:28.257Z,998.02